Time;durP1;ratioP1;P1;durP2;ratioP2;P2;SDS_P1;SDS_P2;PMS_P1;PMS_P2;Temp;Humidity;BMP_temperature;BMP_pressure;BME280_temperature;BME280_humidity;BME280_pressure;Samples;Min_cycle;Max_cycle;Signal;HPM_P1;HPM_P2
2023/07/26 00:00:28;;;;;;;1.40;1.00;;;15.40;98.20;;;;;;5009092;28;20471;-83
2023/07/26 00:02:55;;;;;;;1.50;1.03;;;15.50;98.20;;;;;;5008493;28;20483;-83
2023/07/26 00:05:22;;;;;;;1.50;1.10;;;15.50;98.20;;;;;;5007361;28;20971;-83
2023/07/26 00:07:48;;;;;;;1.50;1.00;;;15.50;98.20;;;;;;4999213;28;20845;-83
2023/07/26 00:10:15;;;;;;;1.50;1.00;;;15.50;98.20;;;;;;5012110;28;20460;-83
2023/07/26 00:12:42;;;;;;;1.47;1.00;;;15.60;98.20;;;;;;5018832;28;20483;-82
2023/07/26 00:15:11;;;;;;;1.50;1.00;;;15.60;98.20;;;;;;5018334;28;21118;-83
2023/07/26 00:17:38;;;;;;;1.47;1.00;;;15.60;98.20;;;;;;5011910;28;20490;-83
2023/07/26 00:20:06;;;;;;;1.50;1.00;;;15.60;98.20;;;;;;5010432;28;20543;-83
2023/07/26 00:22:33;;;;;;;1.50;1.10;;;15.60;98.20;;;;;;5019977;28;20483;-83
2023/07/26 00:25:00;;;;;;;1.50;1.00;;;15.60;98.20;;;;;;5020536;28;20459;-83
2023/07/26 00:27:27;;;;;;;1.47;1.00;;;15.60;98.20;;;;;;5014979;28;20480;-83
2023/07/26 00:29:54;;;;;;;1.50;1.10;;;15.60;98.20;;;;;;5012981;28;20475;-83
2023/07/26 00:32:22;;;;;;;1.50;1.00;;;15.60;98.20;;;;;;5016972;28;20566;-83
2023/07/26 00:34:49;;;;;;;1.50;1.00;;;15.60;98.20;;;;;;5019184;28;20467;-83
2023/07/26 00:37:15;;;;;;;1.50;1.00;;;15.60;98.20;;;;;;5012246;28;20490;-83
2023/07/26 00:39:42;;;;;;;1.47;1.00;;;15.60;98.20;;;;;;5019891;28;20464;-83
2023/07/26 00:42:09;;;;;;;1.50;1.00;;;15.60;98.20;;;;;;5010629;28;20479;-83
2023/07/26 00:44:36;;;;;;;1.50;1.03;;;15.60;98.20;;;;;;5017510;28;20464;-83
2023/07/26 00:47:03;;;;;;;1.47;1.00;;;15.60;98.20;;;;;;5012705;28;20487;-83
2023/07/26 00:49:31;;;;;;;1.47;1.00;;;15.60;98.20;;;;;;5020059;28;20868;-83
2023/07/26 00:51:58;;;;;;;1.50;1.10;;;15.60;98.20;;;;;;5011808;28;20542;-83
2023/07/26 00:54:25;;;;;;;1.43;1.00;;;15.60;98.20;;;;;;5016887;28;20464;-83
2023/07/26 00:56:51;;;;;;;1.50;1.00;;;15.60;98.20;;;;;;5007848;28;20483;-83
2023/07/26 00:59:18;;;;;;;1.50;1.00;;;15.60;98.20;;;;;;5020407;28;20477;-82
2023/07/26 01:01:45;;;;;;;1.50;1.00;;;15.60;98.20;;;;;;5012000;28;20471;-83
2023/07/26 01:04:12;;;;;;;1.47;1.00;;;15.60;98.20;;;;;;5018159;28;20460;-83
2023/07/26 01:06:49;;;;;;;1.50;1.00;;;15.50;98.20;;;;;;5010080;28;20467;-82
2023/07/26 01:09:25;;;;;;;1.47;1.00;;;15.60;98.20;;;;;;5020545;28;20502;-83
2023/07/26 01:11:59;;;;;;;1.50;1.00;;;15.50;98.20;;;;;;5013165;28;20860;-83
2023/07/26 01:14:33;;;;;;;1.50;1.00;;;15.50;98.20;;;;;;5021323;28;20509;-83
2023/07/26 01:17:00;;;;;;;1.47;1.00;;;15.50;98.20;;;;;;5015453;28;20479;-83
2023/07/26 01:19:27;;;;;;;1.50;1.23;;;15.50;98.20;;;;;;5020891;28;20654;-83
2023/07/26 01:21:55;;;;;;;1.50;1.00;;;15.50;98.20;;;;;;5011841;28;20742;-83
2023/07/26 01:24:22;;;;;;;1.50;1.00;;;15.50;98.20;;;;;;5013664;28;20468;-83
2023/07/26 01:26:49;;;;;;;1.50;1.00;;;15.50;98.20;;;;;;5010153;28;20501;-83
2023/07/26 01:29:16;;;;;;;1.50;1.00;;;15.50;98.20;;;;;;5059400;22;20496;-80
2023/07/26 01:31:43;;;;;;;1.50;1.00;;;15.50;98.20;;;;;;5038685;28;20581;-82
2023/07/26 01:34:38;;;;;;;1.50;1.00;;;15.60;98.20;;;;;;5045737;28;20860;-79
2023/07/26 01:37:25;;;;;;;1.50;1.00;;;15.50;98.20;;;;;;5034628;28;20494;-81
2023/07/26 01:39:53;;;;;;;1.50;1.00;;;15.50;98.20;;;;;;5036481;28;20475;-79
2023/07/26 01:42:20;;;;;;;1.47;1.00;;;15.50;98.20;;;;;;5020918;28;20505;-80
2023/07/26 01:44:47;;;;;;;1.50;1.00;;;15.60;98.20;;;;;;5036687;28;20974;-81
2023/07/26 01:47:14;;;;;;;1.50;1.00;;;15.60;98.20;;;;;;5020931;28;20476;-79
2023/07/26 01:49:40;;;;;;;1.43;1.00;;;15.60;98.20;;;;;;5033655;28;21154;-80
2023/07/26 01:52:08;;;;;;;1.50;1.00;;;15.50;98.20;;;;;;5024041;28;20809;-82
2023/07/26 01:54:35;;;;;;;1.60;1.30;;;15.50;98.20;;;;;;5034371;28;20460;-80
2023/07/26 01:57:02;;;;;;;1.50;1.00;;;15.50;98.20;;;;;;5023107;28;20490;-79
2023/07/26 01:59:29;;;;;;;1.50;1.00;;;15.50;98.20;;;;;;5032567;28;20471;-81
2023/07/26 02:01:56;;;;;;;1.47;0.90;;;15.50;98.20;;;;;;5025124;28;20491;-80
2023/07/26 02:04:24;;;;;;;1.47;1.00;;;15.50;98.20;;;;;;5031286;28;20455;-81
2023/07/26 02:06:54;;;;;;;1.50;1.00;;;15.50;98.20;;;;;;5025642;28;20505;-81
2023/07/26 02:09:22;;;;;;;1.50;1.00;;;15.50;98.20;;;;;;5030995;28;20510;-81
2023/07/26 02:11:49;;;;;;;1.47;1.00;;;15.50;98.20;;;;;;5022455;28;20728;-81
2023/07/26 02:14:17;;;;;;;1.47;1.00;;;15.50;98.20;;;;;;5034760;28;20455;-80
2023/07/26 02:16:43;;;;;;;1.50;1.00;;;15.50;98.20;;;;;;5025617;28;20579;-79
2023/07/26 02:19:10;;;;;;;1.47;1.00;;;15.50;98.20;;;;;;5031861;28;20498;-79
2023/07/26 02:21:37;;;;;;;1.50;1.00;;;15.50;98.20;;;;;;5024497;28;20582;-80
2023/07/26 02:24:05;;;;;;;1.50;1.00;;;15.50;98.20;;;;;;5034837;28;20487;-81
2023/07/26 02:26:33;;;;;;;1.50;1.00;;;15.50;98.20;;;;;;5025280;28;20475;-81
2023/07/26 02:28:59;;;;;;;1.50;1.00;;;15.50;98.20;;;;;;5028964;28;20491;-81
2023/07/26 02:31:26;;;;;;;1.50;1.00;;;15.50;98.20;;;;;;5024396;28;20494;-80
2023/07/26 02:33:53;;;;;;;1.50;1.00;;;15.50;98.20;;;;;;5026305;28;20955;-81
2023/07/26 02:36:20;;;;;;;1.50;1.00;;;15.50;98.20;;;;;;5025066;28;20481;-81
2023/07/26 02:38:47;;;;;;;1.50;1.00;;;15.50;98.20;;;;;;5029585;28;20474;-81
2023/07/26 02:41:13;;;;;;;1.50;1.00;;;15.50;98.20;;;;;;5025115;28;20486;-82
2023/07/26 02:43:42;;;;;;;1.50;1.00;;;15.40;98.20;;;;;;5026994;28;20473;-81
2023/07/26 02:46:09;;;;;;;1.50;1.10;;;15.50;98.20;;;;;;5025081;28;20464;-79
2023/07/26 02:48:36;;;;;;;1.50;1.00;;;15.40;98.20;;;;;;5030255;28;20495;-79
2023/07/26 02:54:25;;;;;;;1.47;1.00;;;15.40;98.20;;;;;;5027527;28;20461;-82
2023/07/26 02:56:51;;;;;;;1.50;1.00;;;15.40;98.20;;;;;;5022839;28;20877;-80
2023/07/26 02:59:20;;;;;;;1.47;1.00;;;15.40;98.20;;;;;;5035061;28;20486;-79
2023/07/26 03:01:47;;;;;;;1.50;1.00;;;15.40;98.20;;;;;;5026025;28;20479;-81
2023/07/26 03:04:14;;;;;;;1.47;0.93;;;15.30;98.20;;;;;;5034544;28;20589;-81
2023/07/26 03:06:41;;;;;;;1.43;1.00;;;15.40;98.20;;;;;;5028381;28;20494;-82
2023/07/26 03:09:08;;;;;;;1.50;1.00;;;15.30;98.20;;;;;;5034771;28;21065;-81
2023/07/26 03:11:36;;;;;;;1.50;1.00;;;15.30;98.20;;;;;;5026722;28;20490;-80
2023/07/26 03:14:02;;;;;;;1.50;1.00;;;15.30;98.20;;;;;;5036664;28;20459;-81
2023/07/26 03:16:31;;;;;;;1.47;0.90;;;15.30;98.20;;;;;;5023398;28;20476;-80
2023/07/26 03:18:58;;;;;;;1.60;1.20;;;15.30;98.20;;;;;;5032782;28;20591;-80
2023/07/26 03:21:25;;;;;;;1.50;1.10;;;15.30;98.20;;;;;;5029429;28;20481;-81
2023/07/26 03:23:52;;;;;;;1.47;1.00;;;15.30;98.20;;;;;;5031128;28;20459;-80
2023/07/26 03:26:18;;;;;;;1.50;1.00;;;15.30;98.20;;;;;;5027611;28;20483;-81
2023/07/26 03:28:45;;;;;;;1.50;1.00;;;15.30;98.20;;;;;;5032764;28;20491;-78
2023/07/26 03:31:12;;;;;;;1.47;1.00;;;15.30;98.20;;;;;;5027171;28;20573;-81
2023/07/26 03:33:40;;;;;;;1.50;1.10;;;15.30;98.20;;;;;;5034160;28;20466;-82
2023/07/26 03:36:07;;;;;;;1.50;1.00;;;15.30;98.20;;;;;;5027740;28;22028;-81
2023/07/26 03:38:34;;;;;;;1.50;1.00;;;15.30;98.20;;;;;;5035655;28;20479;-80
2023/07/26 03:41:01;;;;;;;1.50;1.00;;;15.30;98.20;;;;;;5026543;28;20459;-82
2023/07/26 03:43:28;;;;;;;1.50;1.00;;;15.30;98.20;;;;;;5034181;28;20466;-80
2023/07/26 03:45:54;;;;;;;1.50;1.00;;;15.30;98.20;;;;;;5026166;28;20462;-81
2023/07/26 03:48:21;;;;;;;1.50;1.00;;;15.30;98.20;;;;;;5027868;28;20475;-79
2023/07/26 03:50:49;;;;;;;1.50;1.00;;;15.30;98.20;;;;;;5030223;28;20570;-81
2023/07/26 03:53:16;;;;;;;1.50;0.97;;;15.30;98.20;;;;;;5026987;28;20471;-80
2023/07/26 03:55:43;;;;;;;1.50;1.00;;;15.30;98.20;;;;;;5031676;28;20962;-79
2023/07/26 03:58:09;;;;;;;1.50;1.00;;;15.30;98.20;;;;;;5015731;28;20501;-79
2023/07/26 04:00:37;;;;;;;1.47;1.00;;;15.30;98.20;;;;;;5030583;28;20454;-78
2023/07/26 04:03:04;;;;;;;1.50;1.00;;;15.30;98.20;;;;;;5013753;28;20479;-78
2023/07/26 04:05:32;;;;;;;1.50;1.10;;;15.20;98.20;;;;;;5030383;28;20458;-81
2023/07/26 04:08:01;;;;;;;1.50;1.07;;;15.20;98.20;;;;;;5012102;28;20490;-79
2023/07/26 04:10:28;;;;;;;1.50;1.00;;;15.10;98.20;;;;;;5026740;28;20487;-79
2023/07/26 04:12:55;;;;;;;1.47;1.00;;;15.10;98.20;;;;;;5009126;28;20898;-80
2023/07/26 04:15:21;;;;;;;1.50;1.00;;;15.00;98.20;;;;;;5029667;28;20502;-80
2023/07/26 04:17:48;;;;;;;1.50;1.00;;;15.00;98.20;;;;;;5011562;28;20494;-79
2023/07/26 04:20:15;;;;;;;1.50;1.10;;;14.90;98.20;;;;;;5026626;28;20459;-80
2023/07/26 04:22:59;;;;;;;1.50;1.00;;;14.90;98.20;;;;;;5013165;28;20484;-79
2023/07/26 04:25:28;;;;;;;1.50;1.00;;;14.80;98.20;;;;;;5029168;28;20513;-80
2023/07/26 04:27:54;;;;;;;1.50;1.00;;;14.80;98.20;;;;;;5015090;28;20491;-79
2023/07/26 04:30:21;;;;;;;1.50;1.10;;;14.90;98.20;;;;;;5028043;28;20491;-79
2023/07/26 04:32:51;;;;;;;1.50;1.00;;;14.90;98.20;;;;;;5013195;28;20494;-81
2023/07/26 04:35:18;;;;;;;1.50;1.10;;;14.90;98.20;;;;;;5031947;28;20538;-81
2023/07/26 04:37:44;;;;;;;1.50;1.10;;;14.90;98.20;;;;;;5020037;28;20560;-78
2023/07/26 04:40:12;;;;;;;1.47;1.00;;;14.90;98.20;;;;;;5031712;28;20479;-79
2023/07/26 04:42:40;;;;;;;1.50;1.00;;;14.90;98.20;;;;;;5007149;28;20483;-79
2023/07/26 04:45:08;;;;;;;1.50;1.00;;;14.90;98.20;;;;;;5030914;28;20521;-79
2023/07/26 04:47:35;;;;;;;1.47;1.00;;;14.90;98.20;;;;;;5011408;28;20479;-80
2023/07/26 04:50:02;;;;;;;1.50;1.10;;;15.00;98.20;;;;;;5031602;28;20555;-78
2023/07/26 04:52:28;;;;;;;1.50;1.00;;;15.00;98.20;;;;;;5021823;28;20923;-78
2023/07/26 04:54:56;;;;;;;1.50;1.00;;;15.00;98.20;;;;;;5049385;28;20535;-78
2023/07/26 04:57:22;;;;;;;1.50;1.00;;;15.00;98.20;;;;;;5033883;28;20917;-78
2023/07/26 04:59:51;;;;;;;1.47;1.00;;;15.00;98.20;;;;;;5050205;28;20875;-78
2023/07/26 05:02:17;;;;;;;1.50;1.00;;;15.00;98.20;;;;;;5036667;28;20493;-79
2023/07/26 05:04:44;;;;;;;1.50;1.00;;;15.00;98.20;;;;;;5045078;28;20497;-78
2023/07/26 05:07:11;;;;;;;1.50;1.00;;;15.00;98.20;;;;;;5028114;28;20486;-78
2023/07/26 05:09:38;;;;;;;1.50;1.00;;;15.00;98.20;;;;;;5036806;28;20487;-78
2023/07/26 05:12:06;;;;;;;1.50;1.00;;;15.00;98.20;;;;;;5030664;28;20477;-78
2023/07/26 05:14:32;;;;;;;1.50;0.90;;;15.00;98.20;;;;;;5043327;28;20458;-79
2023/07/26 05:17:00;;;;;;;1.50;1.00;;;15.00;98.20;;;;;;5034670;28;21017;-78
2023/07/26 05:19:27;;;;;;;1.50;1.00;;;15.00;98.20;;;;;;5047114;28;20478;-78
2023/07/26 05:21:54;;;;;;;1.50;1.00;;;15.10;98.20;;;;;;5033186;28;20486;-78
2023/07/26 05:24:21;;;;;;;1.50;1.00;;;15.10;98.20;;;;;;5039844;28;20465;-78
2023/07/26 05:26:48;;;;;;;1.47;1.00;;;15.20;98.20;;;;;;5036909;28;20502;-80
2023/07/26 05:29:14;;;;;;;1.50;1.10;;;15.20;98.20;;;;;;5040108;28;20591;-80
2023/07/26 05:31:41;;;;;;;1.50;1.00;;;15.30;98.20;;;;;;5029632;28;20980;-78
2023/07/26 05:34:09;;;;;;;1.50;1.00;;;15.30;98.20;;;;;;5040256;28;20542;-77
2023/07/26 05:36:36;;;;;;;1.50;1.00;;;15.30;98.20;;;;;;5035426;28;20537;-78
2023/07/26 05:39:03;;;;;;;1.50;1.00;;;15.30;98.20;;;;;;5047079;28;20478;-78
2023/07/26 05:41:31;;;;;;;1.50;1.00;;;15.40;98.20;;;;;;5036388;28;21062;-78
2023/07/26 05:43:58;;;;;;;1.50;1.00;;;15.40;98.20;;;;;;5039978;28;20455;-78
2023/07/26 05:46:25;;;;;;;1.50;1.00;;;15.50;98.20;;;;;;5034772;28;20521;-79
2023/07/26 05:48:52;;;;;;;1.50;1.00;;;15.50;98.20;;;;;;5042736;28;20488;-78
2023/07/26 05:51:20;;;;;;;1.50;1.10;;;15.50;98.20;;;;;;5031626;28;20617;-78
2023/07/26 05:53:47;;;;;;;1.50;1.00;;;15.50;98.20;;;;;;5043305;28;20465;-78
2023/07/26 05:56:14;;;;;;;1.50;1.10;;;15.50;98.20;;;;;;5029206;28;21031;-78
2023/07/26 05:58:41;;;;;;;1.50;1.00;;;15.50;98.20;;;;;;5046475;28;20580;-79
2023/07/26 06:01:08;;;;;;;1.50;0.90;;;15.50;98.20;;;;;;5039802;28;20466;-78
2023/07/26 06:03:34;;;;;;;1.50;1.03;;;15.50;98.20;;;;;;5039010;28;20456;-78
2023/07/26 06:06:01;;;;;;;1.50;1.00;;;15.50;98.20;;;;;;5032165;28;20455;-78
2023/07/26 06:08:29;;;;;;;1.50;1.10;;;15.50;98.20;;;;;;5040106;28;20992;-78
2023/07/26 06:10:56;;;;;;;1.50;1.00;;;15.50;98.20;;;;;;5030251;28;20581;-78
2023/07/26 06:13:23;;;;;;;1.50;1.00;;;15.60;98.20;;;;;;5034003;28;20462;-78
2023/07/26 06:15:50;;;;;;;1.50;1.00;;;15.70;98.20;;;;;;5034537;28;20465;-78
2023/07/26 06:18:17;;;;;;;1.50;1.10;;;15.90;98.20;;;;;;5038644;28;20483;-78
2023/07/26 06:20:44;;;;;;;1.50;1.00;;;16.10;98.20;;;;;;5043244;28;20455;-78
2023/07/26 06:23:11;;;;;;;1.50;1.00;;;16.20;98.20;;;;;;5034520;28;20478;-78
2023/07/26 06:25:39;;;;;;;1.50;0.90;;;16.20;98.20;;;;;;5043233;28;20451;-78
2023/07/26 06:28:05;;;;;;;1.50;1.00;;;16.30;98.20;;;;;;5029293;28;20544;-78
2023/07/26 06:30:32;;;;;;;1.50;1.00;;;16.40;98.20;;;;;;5045554;28;20487;-78
2023/07/26 06:32:59;;;;;;;1.50;0.93;;;16.50;98.20;;;;;;5033263;28;20490;-77
2023/07/26 06:35:26;;;;;;;1.50;0.90;;;16.60;98.20;;;;;;5046091;28;20464;-80
2023/07/26 06:37:53;;;;;;;1.50;1.00;;;16.60;98.20;;;;;;5025080;28;20491;-80
2023/07/26 06:40:26;;;;;;;1.50;0.90;;;16.70;98.20;;;;;;5039737;28;20458;-78
2023/07/26 06:42:54;;;;;;;1.50;0.90;;;16.80;98.20;;;;;;5028828;28;20903;-79
2023/07/26 06:45:21;;;;;;;1.50;0.90;;;16.80;98.20;;;;;;5040085;28;20554;-79
2023/07/26 06:47:48;;;;;;;1.50;0.90;;;17.00;98.20;;;;;;5032241;28;20488;-78
2023/07/26 06:50:15;;;;;;;1.50;0.90;;;17.20;98.20;;;;;;5037273;28;20487;-79
2023/07/26 06:52:41;;;;;;;1.50;0.90;;;17.40;98.20;;;;;;5027226;28;20511;-78
2023/07/26 06:55:08;;;;;;;1.50;1.00;;;17.60;98.20;;;;;;5039902;28;20471;-80
2023/07/26 06:57:35;;;;;;;1.50;1.00;;;17.80;98.20;;;;;;5031917;28;20482;-77
2023/07/26 07:00:06;;;;;;;1.50;1.00;;;17.90;98.20;;;;;;5042815;28;20550;-79
2023/07/26 07:02:33;;;;;;;1.50;0.90;;;18.10;98.20;;;;;;5031545;28;20498;-77
2023/07/26 07:05:00;;;;;;;1.50;1.00;;;18.20;98.20;;;;;;5046492;28;20455;-80
2023/07/26 07:07:26;;;;;;;1.50;1.00;;;18.30;98.20;;;;;;5029808;28;20505;-78
2023/07/26 07:09:53;;;;;;;1.50;1.00;;;18.50;98.20;;;;;;5042299;28;20486;-79
2023/07/26 07:12:20;;;;;;;1.50;0.90;;;18.70;98.20;;;;;;5036299;28;20489;-78
2023/07/26 07:14:47;;;;;;;1.50;0.90;;;18.90;98.20;;;;;;5041630;28;20455;-77
2023/07/26 07:17:15;;;;;;;1.50;1.00;;;19.10;98.20;;;;;;5026557;28;20565;-78
2023/07/26 07:19:42;;;;;;;1.50;1.00;;;19.30;98.20;;;;;;5040968;28;21383;-77
2023/07/26 07:22:08;;;;;;;1.50;0.90;;;19.50;98.20;;;;;;5028698;28;20482;-76
2023/07/26 07:24:36;;;;;;;1.50;0.90;;;19.70;98.20;;;;;;5041456;28;20564;-78
2023/07/26 07:27:03;;;;;;;1.50;0.93;;;19.90;98.20;;;;;;5031831;28;20570;-78
2023/07/26 07:29:30;;;;;;;1.50;0.90;;;20.10;98.20;;;;;;5037153;28;20969;-78
2023/07/26 07:31:57;;;;;;;1.50;0.90;;;20.30;98.20;;;;;;5034115;28;20580;-80
2023/07/26 07:34:25;;;;;;;1.50;0.90;;;20.50;98.20;;;;;;5040595;28;20458;-79
2023/07/26 07:36:52;;;;;;;1.50;0.90;;;20.50;98.20;;;;;;5034250;28;20680;-79
2023/07/26 07:39:19;;;;;;;1.50;0.90;;;20.50;98.20;;;;;;5042254;28;20619;-80
2023/07/26 07:41:46;;;;;;;1.50;0.90;;;20.50;98.20;;;;;;5028807;28;20482;-79
2023/07/26 07:44:13;;;;;;;1.50;1.00;;;20.50;98.20;;;;;;5035412;28;20459;-78
2023/07/26 07:46:40;;;;;;;1.50;0.90;;;20.50;98.20;;;;;;5031653;28;20486;-80
2023/07/26 07:49:08;;;;;;;1.50;0.90;;;20.70;98.20;;;;;;5043849;28;20482;-78
2023/07/26 07:51:36;;;;;;;1.50;0.90;;;20.90;98.20;;;;;;5029843;28;20710;-79
2023/07/26 07:54:03;;;;;;;1.50;0.90;;;21.10;98.20;;;;;;5034399;28;20929;-78
2023/07/26 07:56:29;;;;;;;1.50;0.90;;;21.20;97.70;;;;;;5032195;28;20492;-80
2023/07/26 07:58:56;;;;;;;1.50;0.90;;;21.40;98.00;;;;;;5037362;28;20471;-80
2023/07/26 08:01:25;;;;;;;1.50;0.90;;;21.60;97.90;;;;;;5031015;28;20622;-81
2023/07/26 08:03:51;;;;;;;1.50;0.90;;;21.80;95.60;;;;;;5042717;28;20529;-80
2023/07/26 08:06:19;;;;;;;1.50;0.90;;;21.70;96.00;;;;;;5031150;28;20474;-80
2023/07/26 08:08:47;;;;;;;1.50;0.90;;;21.80;97.40;;;;;;5047266;28;21272;-79
2023/07/26 08:11:14;;;;;;;1.50;1.00;;;21.90;95.60;;;;;;5035353;28;20481;-80
2023/07/26 08:13:40;;;;;;;1.50;0.87;;;22.10;96.20;;;;;;5041822;28;20458;-79
2023/07/26 08:16:07;;;;;;;1.50;0.90;;;22.20;95.60;;;;;;5030771;28;21133;-78
2023/07/26 08:18:34;;;;;;;1.50;0.90;;;22.40;94.40;;;;;;5043256;28;20497;-80
2023/07/26 08:21:02;;;;;;;1.50;0.90;;;22.50;94.60;;;;;;5031944;28;20459;-81
2023/07/26 08:26:39;;;;;;;1.47;0.83;;;23.00;93.90;;;;;;5036600;28;20474;-79
2023/07/26 08:29:06;;;;;;;1.50;0.90;;;23.20;93.20;;;;;;5047923;28;21007;-80
2023/07/26 08:31:33;;;;;;;1.47;0.90;;;23.30;92.20;;;;;;5039425;28;20859;-80
2023/07/26 08:34:00;;;;;;;1.50;0.90;;;23.20;91.40;;;;;;5040476;28;20458;-81
2023/07/26 08:36:26;;;;;;;1.50;0.90;;;22.90;91.70;;;;;;5039332;28;20557;-80
2023/07/26 08:38:55;;;;;;;1.50;0.90;;;22.80;92.00;;;;;;5048461;28;20482;-80
2023/07/26 08:44:50;;;;;;;1.50;0.90;;;22.90;90.10;;;;;;5026187;28;20447;-79
2023/07/26 08:47:19;;;;;;;1.47;0.90;;;22.80;90.20;;;;;;5034995;28;20483;-80
2023/07/26 08:49:46;;;;;;;1.50;1.00;;;22.70;91.20;;;;;;5051255;28;20512;-80
2023/07/26 08:52:15;;;;;;;1.50;0.80;;;22.60;91.80;;;;;;5033996;28;20489;-82
2023/07/26 08:54:44;;;;;;;1.40;0.90;;;22.50;91.60;;;;;;5047706;28;20454;-80
2023/07/26 08:57:10;;;;;;;1.47;0.90;;;22.30;91.90;;;;;;5038481;28;20474;-79
2023/07/26 08:59:48;;;;;;;1.50;0.80;;;22.40;92.30;;;;;;5050955;28;20474;-81
2023/07/26 09:02:17;;;;;;;1.50;0.90;;;22.40;92.30;;;;;;5038859;28;20851;-81
2023/07/26 09:04:45;;;;;;;1.47;0.90;;;22.50;92.20;;;;;;5044649;28;20492;-80
2023/07/26 09:07:13;;;;;;;1.43;0.90;;;22.60;92.30;;;;;;5039263;28;20512;-79
2023/07/26 09:09:40;;;;;;;1.47;0.90;;;22.50;92.60;;;;;;5049616;28;21073;-80
2023/07/26 09:12:08;;;;;;;1.50;0.90;;;22.50;92.40;;;;;;5035208;28;20482;-81
2023/07/26 09:14:35;;;;;;;1.50;0.90;;;22.50;91.80;;;;;;5046197;28;20475;-80
2023/07/26 09:17:04;;;;;;;1.47;0.90;;;22.60;92.10;;;;;;5038705;28;20967;-80
2023/07/26 09:19:32;;;;;;;1.47;0.90;;;22.70;91.90;;;;;;5047227;28;20498;-82
2023/07/26 09:22:00;;;;;;;1.43;0.87;;;22.80;91.50;;;;;;5035357;28;20478;-81
2023/07/26 09:24:33;;;;;;;1.47;0.90;;;22.80;90.90;;;;;;5049342;28;20458;-80
2023/07/26 09:27:04;;;;;;;1.47;0.80;;;22.90;90.50;;;;;;5038970;28;20483;-81
2023/07/26 09:29:32;;;;;;;1.47;0.90;;;23.20;90.90;;;;;;5042244;28;20491;-81
2023/07/26 09:31:59;;;;;;;1.50;0.90;;;23.40;89.20;;;;;;5036928;28;20484;-81
2023/07/26 09:34:27;;;;;;;1.47;0.90;;;23.40;88.60;;;;;;5049597;28;20458;-80
2023/07/26 09:36:54;;;;;;;1.43;0.80;;;23.50;88.00;;;;;;5037697;28;20486;-80
2023/07/26 09:39:24;;;;;;;1.40;0.87;;;23.50;87.60;;;;;;5046046;28;20535;-81
2023/07/26 09:42:34;;;;;;;1.50;0.90;;;23.50;87.80;;;;;;5042054;28;20517;-79
2023/07/26 09:45:36;;;;;;;1.50;1.00;;;23.60;87.70;;;;;;5051376;28;20553;-81
2023/07/26 09:48:08;;;;;;;1.47;0.90;;;23.50;87.00;;;;;;5018061;28;20479;-80
2023/07/26 09:50:36;;;;;;;1.47;0.90;;;23.40;87.40;;;;;;5050511;28;20771;-82
2023/07/26 09:53:05;;;;;;;1.47;0.90;;;23.30;87.40;;;;;;5036712;28;20482;-80
2023/07/26 09:55:32;;;;;;;1.50;0.83;;;23.20;87.00;;;;;;5044149;28;20525;-80
2023/07/26 10:00:49;;;;;;;1.47;0.80;;;22.90;87.80;;;;;;5043552;28;20469;-80
2023/07/26 10:03:20;;;;;;;1.47;0.90;;;22.60;89.00;;;;;;5014121;28;20762;-81
2023/07/26 10:05:48;;;;;;;1.50;0.90;;;22.50;88.50;;;;;;5034364;28;20936;-82
2023/07/26 10:08:16;;;;;;;1.50;0.90;;;22.30;88.70;;;;;;5039469;28;20516;-82
2023/07/26 10:10:43;;;;;;;1.50;0.90;;;22.20;89.10;;;;;;5036480;28;21088;-82
2023/07/26 10:13:11;;;;;;;1.50;0.90;;;22.10;89.50;;;;;;5020736;28;20475;-82
2023/07/26 10:15:46;;;;;;;1.60;1.30;;;21.90;89.40;;;;;;5033614;28;20578;-82
2023/07/26 10:18:16;;;;;;;1.47;0.90;;;21.70;88.40;;;;;;5010299;28;20470;-80
2023/07/26 10:20:48;;;;;;;1.50;0.90;;;21.40;90.20;;;;;;5038208;28;20542;-81
2023/07/26 10:23:22;;;;;;;1.50;0.90;;;21.10;91.70;;;;;;5010927;28;20577;-81
2023/07/26 10:25:49;;;;;;;1.50;0.90;;;20.90;93.40;;;;;;5027479;28;20461;-82
2023/07/26 10:28:17;;;;;;;1.47;0.90;;;20.80;94.20;;;;;;5031688;28;20491;-79
2023/07/26 10:30:44;;;;;;;2.07;1.83;;;20.80;94.10;;;;;;5039571;28;20482;-80
2023/07/26 10:33:13;;;;;;;1.40;0.90;;;20.80;94.80;;;;;;5021308;28;21309;-80
2023/07/26 10:35:42;;;;;;;1.50;0.90;;;20.80;95.40;;;;;;5042049;28;20473;-80
2023/07/26 10:38:11;;;;;;;1.50;0.90;;;20.60;96.00;;;;;;5023671;28;20494;-78
2023/07/26 10:40:41;;;;;;;1.50;0.90;;;20.40;97.00;;;;;;5041942;28;20463;-83
2023/07/26 10:43:39;;;;;;;1.50;0.90;;;20.10;98.20;;;;;;5025358;28;20742;-79
2023/07/26 10:46:11;;;;;;;1.50;0.90;;;19.80;98.20;;;;;;5029636;28;20752;-81
2023/07/26 10:48:40;;;;;;;1.50;0.90;;;19.50;98.20;;;;;;5035042;28;20540;-83
2023/07/26 10:51:28;;;;;;;1.50;0.90;;;19.30;98.20;;;;;;5030784;28;20561;-82
2023/07/26 10:53:55;;;;;;;1.50;0.90;;;19.20;98.20;;;;;;5034506;28;20473;-81
2023/07/26 10:56:24;;;;;;;1.50;0.90;;;19.00;98.20;;;;;;5029787;28;20478;-82
2023/07/26 10:58:53;;;;;;;1.50;1.00;;;18.90;98.20;;;;;;5034195;28;20493;-82
2023/07/26 11:01:37;;;;;;;1.60;1.10;;;18.80;98.20;;;;;;5023863;28;20486;-81
2023/07/26 11:04:10;;;;;;;1.43;0.90;;;18.70;98.20;;;;;;5033160;28;20459;-80
2023/07/26 11:06:55;;;;;;;1.50;0.90;;;18.70;98.20;;;;;;5020199;28;20899;-81
2023/07/26 11:09:55;;;;;;;1.50;0.90;;;18.90;98.20;;;;;;5034784;28;20517;-81
2023/07/26 11:12:24;;;;;;;1.43;0.90;;;19.20;98.20;;;;;;5020229;28;20545;-79
2023/07/26 11:14:51;;;;;;;1.50;0.90;;;19.80;98.20;;;;;;5035625;28;20558;-80
2023/07/26 11:17:18;;;;;;;1.50;0.90;;;20.30;98.20;;;;;;5017788;28;20820;-80
2023/07/26 11:19:47;;;;;;;1.50;0.90;;;20.80;98.20;;;;;;5033889;28;20609;-79
2023/07/26 11:22:13;;;;;;;1.50;0.90;;;21.30;98.20;;;;;;5023097;28;20801;-79
2023/07/26 11:24:40;;;;;;;1.50;0.90;;;21.80;98.20;;;;;;5037708;28;20466;-78
2023/07/26 11:27:08;;;;;;;1.50;0.80;;;22.30;97.30;;;;;;5023676;28;20490;-79
2023/07/26 11:29:35;;;;;;;1.50;0.90;;;22.70;96.10;;;;;;5032104;28;20560;-79
2023/07/26 11:32:03;;;;;;;1.50;0.90;;;23.00;92.50;;;;;;5022552;28;20487;-78
2023/07/26 11:34:30;;;;;;;1.50;0.90;;;23.40;92.70;;;;;;5034226;28;20459;-80
2023/07/26 11:37:08;;;;;;;1.50;0.90;;;23.70;93.20;;;;;;5024968;28;20491;-79
2023/07/26 11:39:46;;;;;;;1.50;0.80;;;24.10;90.00;;;;;;5031766;28;20490;-78
2023/07/26 11:42:16;;;;;;;1.43;0.80;;;24.30;91.20;;;;;;5021687;28;20544;-79
2023/07/26 11:44:43;;;;;;;1.47;0.80;;;24.30;89.50;;;;;;5030941;28;20466;-79
2023/07/26 11:47:10;;;;;;;1.43;0.80;;;24.20;89.50;;;;;;5017338;28;21099;-79
2023/07/26 11:49:38;;;;;;;1.43;0.90;;;24.10;90.00;;;;;;5027968;28;20490;-79
2023/07/26 11:52:15;;;;;;;1.43;0.80;;;23.80;90.10;;;;;;5018012;28;20499;-80
2023/07/26 11:54:54;;;;;;;1.47;0.80;;;23.60;90.70;;;;;;5031909;28;20471;-80
2023/07/26 11:57:21;;;;;;;1.47;0.90;;;23.50;91.00;;;;;;5018054;28;20478;-80
2023/07/26 11:59:48;;;;;;;1.47;0.90;;;23.60;92.70;;;;;;5034614;28;20505;-81
2023/07/26 12:02:15;;;;;;;1.47;0.90;;;23.70;94.40;;;;;;5030317;28;21014;-81
2023/07/26 12:04:42;;;;;;;1.43;0.90;;;24.00;93.20;;;;;;5041718;28;20550;-81
2023/07/26 12:07:11;;;;;;;1.50;0.90;;;24.30;91.90;;;;;;5027990;28;20507;-81
2023/07/26 12:09:47;;;;;;;1.43;0.80;;;24.50;90.80;;;;;;5037400;28;20502;-82
2023/07/26 12:12:14;;;;;;;1.50;0.87;;;24.80;89.70;;;;;;5032521;28;20474;-81
2023/07/26 12:17:34;;;;;;;1.43;0.80;;;25.20;87.00;;;;;;5026894;28;20482;-81
2023/07/26 12:20:16;;;;;;;1.40;0.80;;;25.40;87.60;;;;;;5040687;28;20486;-82
2023/07/26 12:23:21;;;;;;;1.50;0.80;;;25.50;85.70;;;;;;5028764;28;20481;-83
2023/07/26 12:25:53;;;;;;;1.50;0.90;;;25.50;87.40;;;;;;5025825;28;20473;-82
2023/07/26 12:28:20;;;;;;;1.40;0.80;;;25.40;86.50;;;;;;5031986;28;20482;-82
2023/07/26 12:30:53;;;;;;;1.50;0.80;;;25.00;85.20;;;;;;5029053;28;20470;-82
2023/07/26 12:33:35;;;;;;;1.50;0.90;;;24.70;86.80;;;;;;5031417;28;20465;-81
2023/07/26 12:36:10;;;;;;;1.50;0.80;;;24.50;87.10;;;;;;5028090;28;20479;-81
2023/07/26 12:38:48;;;;;;;1.50;0.80;;;24.50;87.50;;;;;;5038749;28;20485;-80
2023/07/26 12:41:24;;;;;;;1.47;0.80;;;24.60;88.60;;;;;;5050653;28;20466;-82
2023/07/26 12:44:48;;;;;;;;;;;;;;;;;;;;;
2023/07/26 12:47:24;;;;;;;1.40;0.80;;;25.30;88.30;;;;;;5043028;28;20458;-82
2023/07/26 12:49:54;;;;;;;1.43;0.80;;;25.40;86.50;;;;;;5044343;28;20477;-82
2023/07/26 12:52:37;;;;;;;1.50;0.90;;;25.60;85.80;;;;;;5032347;28;20835;-81
2023/07/26 12:55:09;;;;;;;1.47;0.80;;;25.60;82.90;;;;;;5044964;28;20458;-81
2023/07/26 12:57:53;;;;;;;1.50;0.80;;;25.50;84.70;;;;;;5031632;28;20490;-81
2023/07/26 13:00:22;;;;;;;1.50;0.90;;;25.50;86.30;;;;;;5045221;28;20517;-80
2023/07/26 13:02:52;;;;;;;1.47;0.80;;;25.60;84.20;;;;;;5027797;28;20470;-79
2023/07/26 13:05:20;;;;;;;1.47;0.90;;;25.60;80.60;;;;;;5040966;28;20607;-82
2023/07/26 13:07:49;;;;;;;1.47;0.80;;;25.30;79.60;;;;;;5023965;28;20495;-80
2023/07/26 13:10:15;;;;;;;1.50;0.80;;;25.10;81.60;;;;;;5040198;28;20470;-80
2023/07/26 13:12:44;;;;;;;1.43;0.87;;;24.90;83.30;;;;;;5026818;28;20490;-80